sensor_id;sensor_type;location;lat;lon;timestamp;P1;durP1;ratioP1;P2;durP2;ratioP2
23338;SDS011;11841;49.368;20.962;2024-03-23T00:55:00;23.27;;;12.07;;
23338;SDS011;11841;49.368;20.962;2024-03-23T00:57:44;26.38;;;12.95;;
23338;SDS011;11841;49.368;20.962;2024-03-23T01:00:29;18.20;;;11.07;;
23338;SDS011;11841;49.368;20.962;2024-03-23T01:03:13;22.45;;;11.30;;
23338;SDS011;11841;49.368;20.962;2024-03-23T01:05:59;21.02;;;11.02;;
23338;SDS011;11841;49.368;20.962;2024-03-23T01:08:43;25.08;;;12.05;;
23338;SDS011;11841;49.368;20.962;2024-03-23T01:11:28;24.98;;;11.98;;
23338;SDS011;11841;49.368;20.962;2024-03-23T01:14:12;24.70;;;10.82;;
23338;SDS011;11841;49.368;20.962;2024-03-23T01:16:57;27.75;;;13.38;;
23338;SDS011;11841;49.368;20.962;2024-03-23T01:19:41;26.42;;;13.05;;
23338;SDS011;11841;49.368;20.962;2024-03-23T01:22:26;20.33;;;12.15;;
23338;SDS011;11841;49.368;20.962;2024-03-23T01:25:10;29.38;;;15.30;;
23338;SDS011;11841;49.368;20.962;2024-03-23T01:27:55;22.90;;;12.73;;
23338;SDS011;11841;49.368;20.962;2024-03-23T01:30:39;24.25;;;13.10;;
23338;SDS011;11841;49.368;20.962;2024-03-23T01:33:24;26.95;;;13.88;;
23338;SDS011;11841;49.368;20.962;2024-03-23T01:36:08;21.35;;;13.18;;
23338;SDS011;11841;49.368;20.962;2024-03-23T01:38:53;23.23;;;12.60;;
23338;SDS011;11841;49.368;20.962;2024-03-23T01:41:37;26.38;;;13.23;;
23338;SDS011;11841;49.368;20.962;2024-03-23T01:44:26;29.30;;;13.50;;
23338;SDS011;11841;49.368;20.962;2024-03-23T01:47:11;23.50;;;13.10;;
23338;SDS011;11841;49.368;20.962;2024-03-23T01:49:55;30.60;;;15.02;;
23338;SDS011;11841;49.368;20.962;2024-03-23T01:52:40;23.67;;;12.68;;
23338;SDS011;11841;49.368;20.962;2024-03-23T01:55:24;19.75;;;10.07;;
23338;SDS011;11841;49.368;20.962;2024-03-23T01:58:08;20.17;;;11.90;;
23338;SDS011;11841;49.368;20.962;2024-03-23T02:00:53;21.63;;;12.07;;
23338;SDS011;11841;49.368;20.962;2024-03-23T02:03:37;24.10;;;11.27;;
23338;SDS011;11841;49.368;20.962;2024-03-23T02:06:22;22.70;;;12.15;;
23338;SDS011;11841;49.368;20.962;2024-03-23T02:09:08;22.27;;;11.43;;
23338;SDS011;11841;49.368;20.962;2024-03-23T02:11:52;26.35;;;13.13;;
23338;SDS011;11841;49.368;20.962;2024-03-23T02:14:37;23.02;;;12.25;;
23338;SDS011;11841;49.368;20.962;2024-03-23T02:17:21;31.20;;;13.32;;
23338;SDS011;11841;49.368;20.962;2024-03-23T02:20:06;22.48;;;13.25;;
23338;SDS011;11841;49.368;20.962;2024-03-23T02:22:52;26.85;;;15.20;;
23338;SDS011;11841;49.368;20.962;2024-03-23T02:25:39;27.73;;;14.40;;
23338;SDS011;11841;49.368;20.962;2024-03-23T02:28:23;21.77;;;11.15;;
23338;SDS011;11841;49.368;20.962;2024-03-23T02:31:08;25.67;;;11.98;;
23338;SDS011;11841;49.368;20.962;2024-03-23T02:33:52;22.80;;;12.70;;
23338;SDS011;11841;49.368;20.962;2024-03-23T02:36:37;22.17;;;12.05;;
23338;SDS011;11841;49.368;20.962;2024-03-23T02:39:21;22.67;;;12.05;;
23338;SDS011;11841;49.368;20.962;2024-03-23T02:42:06;24.90;;;12.52;;
23338;SDS011;11841;49.368;20.962;2024-03-23T02:44:50;23.13;;;12.50;;
23338;SDS011;11841;49.368;20.962;2024-03-23T02:47:35;25.38;;;11.85;;
23338;SDS011;11841;49.368;20.962;2024-03-23T02:50:19;21.73;;;11.75;;
23338;SDS011;11841;49.368;20.962;2024-03-23T02:53:04;21.42;;;11.70;;
23338;SDS011;11841;49.368;20.962;2024-03-23T02:55:48;23.50;;;11.50;;
23338;SDS011;11841;49.368;20.962;2024-03-23T02:58:33;28.45;;;13.52;;
23338;SDS011;11841;49.368;20.962;2024-03-23T03:01:18;27.20;;;13.85;;
23338;SDS011;11841;49.368;20.962;2024-03-23T03:04:02;24.50;;;13.60;;
23338;SDS011;11841;49.368;20.962;2024-03-23T03:06:47;24.25;;;13.75;;
23338;SDS011;11841;49.368;20.962;2024-03-23T03:09:31;24.95;;;12.45;;
23338;SDS011;11841;49.368;20.962;2024-03-23T03:12:17;25.10;;;12.85;;
23338;SDS011;11841;49.368;20.962;2024-03-23T03:15:01;23.17;;;12.98;;
23338;SDS011;11841;49.368;20.962;2024-03-23T03:17:47;24.77;;;11.85;;
23338;SDS011;11841;49.368;20.962;2024-03-23T03:20:31;26.73;;;13.82;;
23338;SDS011;11841;49.368;20.962;2024-03-23T03:23:16;23.48;;;12.98;;
23338;SDS011;11841;49.368;20.962;2024-03-23T03:26:02;22.40;;;12.27;;
23338;SDS011;11841;49.368;20.962;2024-03-23T03:28:46;24.52;;;12.65;;
23338;SDS011;11841;49.368;20.962;2024-03-23T03:31:32;25.40;;;13.55;;
23338;SDS011;11841;49.368;20.962;2024-03-23T03:34:17;28.65;;;13.57;;
23338;SDS011;11841;49.368;20.962;2024-03-23T03:37:01;25.42;;;12.13;;
23338;SDS011;11841;49.368;20.962;2024-03-23T03:39:45;26.25;;;13.20;;
23338;SDS011;11841;49.368;20.962;2024-03-23T03:42:30;22.35;;;12.35;;
23338;SDS011;11841;49.368;20.962;2024-03-23T03:45:15;23.27;;;12.15;;
23338;SDS011;11841;49.368;20.962;2024-03-23T03:47:59;26.25;;;12.05;;
23338;SDS011;11841;49.368;20.962;2024-03-23T03:50:44;23.10;;;12.65;;
23338;SDS011;11841;49.368;20.962;2024-03-23T03:53:28;18.20;;;11.40;;
23338;SDS011;11841;49.368;20.962;2024-03-23T03:56:13;25.40;;;12.27;;
23338;SDS011;11841;49.368;20.962;2024-03-23T03:58:57;22.05;;;12.27;;
23338;SDS011;11841;49.368;20.962;2024-03-23T04:01:41;24.83;;;12.25;;
23338;SDS011;11841;49.368;20.962;2024-03-23T04:04:26;27.20;;;13.13;;
23338;SDS011;11841;49.368;20.962;2024-03-23T04:07:11;25.70;;;13.98;;
23338;SDS011;11841;49.368;20.962;2024-03-23T04:09:55;26.00;;;13.73;;
23338;SDS011;11841;49.368;20.962;2024-03-23T04:12:40;27.85;;;13.18;;
23338;SDS011;11841;49.368;20.962;2024-03-23T04:15:25;24.13;;;13.40;;
23338;SDS011;11841;49.368;20.962;2024-03-23T04:18:10;26.02;;;12.50;;
23338;SDS011;11841;49.368;20.962;2024-03-23T04:20:58;27.80;;;14.95;;
23338;SDS011;11841;49.368;20.962;2024-03-23T04:23:42;23.23;;;12.85;;
23338;SDS011;11841;49.368;20.962;2024-03-23T04:26:27;23.42;;;13.95;;
23338;SDS011;11841;49.368;20.962;2024-03-23T04:29:12;25.15;;;12.75;;
23338;SDS011;11841;49.368;20.962;2024-03-23T04:31:56;24.20;;;13.23;;
23338;SDS011;11841;49.368;20.962;2024-03-23T04:34:40;30.23;;;14.30;;
23338;SDS011;11841;49.368;20.962;2024-03-23T04:37:25;24.15;;;12.35;;
23338;SDS011;11841;49.368;20.962;2024-03-23T04:40:10;24.27;;;13.27;;
23338;SDS011;11841;49.368;20.962;2024-03-23T04:42:55;22.92;;;12.70;;
23338;SDS011;11841;49.368;20.962;2024-03-23T04:45:40;22.05;;;13.23;;
23338;SDS011;11841;49.368;20.962;2024-03-23T04:48:24;26.48;;;12.90;;
23338;SDS011;11841;49.368;20.962;2024-03-23T04:51:08;24.00;;;13.23;;
23338;SDS011;11841;49.368;20.962;2024-03-23T04:53:53;26.77;;;14.07;;
23338;SDS011;11841;49.368;20.962;2024-03-23T04:56:38;30.48;;;15.65;;
23338;SDS011;11841;49.368;20.962;2024-03-23T04:59:22;29.55;;;15.38;;
23338;SDS011;11841;49.368;20.962;2024-03-23T05:02:07;28.90;;;13.82;;
23338;SDS011;11841;49.368;20.962;2024-03-23T05:04:51;32.83;;;15.48;;
23338;SDS011;11841;49.368;20.962;2024-03-23T05:07:36;28.05;;;14.95;;
23338;SDS011;11841;49.368;20.962;2024-03-23T05:10:20;30.45;;;15.90;;
23338;SDS011;11841;49.368;20.962;2024-03-23T05:13:05;29.85;;;15.48;;
23338;SDS011;11841;49.368;20.962;2024-03-23T05:15:53;28.45;;;14.95;;
23338;SDS011;11841;49.368;20.962;2024-03-23T05:18:38;31.80;;;15.77;;
23338;SDS011;11841;49.368;20.962;2024-03-23T05:21:22;29.42;;;16.73;;
23338;SDS011;11841;49.368;20.962;2024-03-23T05:24:07;30.27;;;16.63;;
23338;SDS011;11841;49.368;20.962;2024-03-23T05:26:51;32.33;;;16.77;;
23338;SDS011;11841;49.368;20.962;2024-03-23T05:29:36;34.22;;;16.92;;
23338;SDS011;11841;49.368;20.962;2024-03-23T05:32:21;30.92;;;15.75;;
23338;SDS011;11841;49.368;20.962;2024-03-23T05:35:07;32.33;;;16.00;;
23338;SDS011;11841;49.368;20.962;2024-03-23T05:37:52;22.50;;;12.40;;
23338;SDS011;11841;49.368;20.962;2024-03-23T05:40:36;27.48;;;14.20;;
23338;SDS011;11841;49.368;20.962;2024-03-23T05:43:24;26.60;;;14.75;;
23338;SDS011;11841;49.368;20.962;2024-03-23T05:46:09;27.60;;;13.60;;
23338;SDS011;11841;49.368;20.962;2024-03-23T05:48:53;34.13;;;16.70;;
23338;SDS011;11841;49.368;20.962;2024-03-23T05:51:44;31.45;;;15.32;;
23338;SDS011;11841;49.368;20.962;2024-03-23T05:54:29;28.13;;;15.57;;
23338;SDS011;11841;49.368;20.962;2024-03-23T05:57:13;37.17;;;15.63;;
23338;SDS011;11841;49.368;20.962;2024-03-23T05:59:58;29.15;;;15.60;;
23338;SDS011;11841;49.368;20.962;2024-03-23T06:02:42;31.33;;;15.60;;
23338;SDS011;11841;49.368;20.962;2024-03-23T06:05:29;35.28;;;16.80;;
23338;SDS011;11841;49.368;20.962;2024-03-23T06:08:14;32.53;;;14.98;;
23338;SDS011;11841;49.368;20.962;2024-03-23T06:10:59;37.20;;;17.20;;
23338;SDS011;11841;49.368;20.962;2024-03-23T06:13:43;32.38;;;16.20;;
23338;SDS011;11841;49.368;20.962;2024-03-23T06:16:28;29.80;;;16.42;;
23338;SDS011;11841;49.368;20.962;2024-03-23T06:19:12;32.40;;;15.98;;
23338;SDS011;11841;49.368;20.962;2024-03-23T06:21:56;27.98;;;15.75;;
23338;SDS011;11841;49.368;20.962;2024-03-23T06:24:41;35.95;;;17.02;;
23338;SDS011;11841;49.368;20.962;2024-03-23T06:27:25;37.40;;;16.60;;
23338;SDS011;11841;49.368;20.962;2024-03-23T06:30:10;35.53;;;17.13;;
23338;SDS011;11841;49.368;20.962;2024-03-23T06:32:55;32.70;;;17.52;;
23338;SDS011;11841;49.368;20.962;2024-03-23T06:35:40;32.63;;;16.77;;
23338;SDS011;11841;49.368;20.962;2024-03-23T06:38:24;32.45;;;16.67;;
23338;SDS011;11841;49.368;20.962;2024-03-23T06:41:09;32.50;;;16.75;;
23338;SDS011;11841;49.368;20.962;2024-03-23T06:43:53;32.05;;;16.85;;
23338;SDS011;11841;49.368;20.962;2024-03-23T06:46:38;33.42;;;18.10;;
23338;SDS011;11841;49.368;20.962;2024-03-23T06:49:22;31.40;;;17.27;;
23338;SDS011;11841;49.368;20.962;2024-03-23T06:52:07;35.28;;;17.48;;
23338;SDS011;11841;49.368;20.962;2024-03-23T06:54:52;33.92;;;15.68;;
23338;SDS011;11841;49.368;20.962;2024-03-23T06:57:36;29.20;;;16.30;;
23338;SDS011;11841;49.368;20.962;2024-03-23T07:00:21;31.40;;;17.10;;
23338;SDS011;11841;49.368;20.962;2024-03-23T07:03:05;35.38;;;17.80;;
23338;SDS011;11841;49.368;20.962;2024-03-23T07:05:51;41.30;;;19.13;;
23338;SDS011;11841;49.368;20.962;2024-03-23T07:08:35;30.63;;;16.27;;
23338;SDS011;11841;49.368;20.962;2024-03-23T07:11:20;32.22;;;17.25;;
23338;SDS011;11841;49.368;20.962;2024-03-23T07:14:05;50.25;;;20.50;;
23338;SDS011;11841;49.368;20.962;2024-03-23T07:16:50;33.95;;;18.17;;
23338;SDS011;11841;49.368;20.962;2024-03-23T07:19:34;30.27;;;16.42;;
23338;SDS011;11841;49.368;20.962;2024-03-23T07:22:19;37.00;;;19.40;;
23338;SDS011;11841;49.368;20.962;2024-03-23T07:25:04;39.03;;;19.90;;
23338;SDS011;11841;49.368;20.962;2024-03-23T07:27:49;32.95;;;17.55;;
23338;SDS011;11841;49.368;20.962;2024-03-23T07:30:34;29.60;;;17.60;;
23338;SDS011;11841;49.368;20.962;2024-03-23T07:33:19;35.67;;;19.60;;
23338;SDS011;11841;49.368;20.962;2024-03-23T07:36:03;39.22;;;19.55;;
23338;SDS011;11841;49.368;20.962;2024-03-23T07:38:49;38.53;;;17.92;;
23338;SDS011;11841;49.368;20.962;2024-03-23T07:41:34;43.05;;;20.73;;
23338;SDS011;11841;49.368;20.962;2024-03-23T07:44:19;35.33;;;18.67;;
23338;SDS011;11841;49.368;20.962;2024-03-23T07:47:04;32.35;;;17.88;;
23338;SDS011;11841;49.368;20.962;2024-03-23T07:49:48;35.00;;;17.90;;
23338;SDS011;11841;49.368;20.962;2024-03-23T07:52:33;44.47;;;20.65;;
23338;SDS011;11841;49.368;20.962;2024-03-23T07:55:17;35.92;;;19.08;;
23338;SDS011;11841;49.368;20.962;2024-03-23T07:58:02;42.97;;;19.40;;
23338;SDS011;11841;49.368;20.962;2024-03-23T08:00:46;37.03;;;19.80;;
23338;SDS011;11841;49.368;20.962;2024-03-23T08:03:31;32.28;;;17.98;;
23338;SDS011;11841;49.368;20.962;2024-03-23T08:06:16;33.30;;;18.17;;
23338;SDS011;11841;49.368;20.962;2024-03-23T08:09:03;37.53;;;17.52;;
23338;SDS011;11841;49.368;20.962;2024-03-23T08:11:48;33.28;;;17.63;;
23338;SDS011;11841;49.368;20.962;2024-03-23T08:14:32;36.70;;;18.17;;
23338;SDS011;11841;49.368;20.962;2024-03-23T08:17:17;37.00;;;18.27;;
23338;SDS011;11841;49.368;20.962;2024-03-23T08:20:01;39.40;;;19.33;;
23338;SDS011;11841;49.368;20.962;2024-03-23T08:22:46;34.95;;;18.25;;
23338;SDS011;11841;49.368;20.962;2024-03-23T08:25:31;32.67;;;19.40;;
23338;SDS011;11841;49.368;20.962;2024-03-23T08:28:16;40.25;;;21.25;;
23338;SDS011;11841;49.368;20.962;2024-03-23T08:31:05;35.15;;;19.70;;
23338;SDS011;11841;49.368;20.962;2024-03-23T08:33:51;41.85;;;19.70;;
23338;SDS011;11841;49.368;20.962;2024-03-23T08:36:35;35.08;;;19.63;;
23338;SDS011;11841;49.368;20.962;2024-03-23T08:39:20;37.10;;;19.98;;
23338;SDS011;11841;49.368;20.962;2024-03-23T08:42:05;47.55;;;20.52;;
23338;SDS011;11841;49.368;20.962;2024-03-23T08:44:49;40.22;;;21.38;;
23338;SDS011;11841;49.368;20.962;2024-03-23T08:47:34;37.05;;;20.90;;
23338;SDS011;11841;49.368;20.962;2024-03-23T08:50:20;39.92;;;20.13;;
23338;SDS011;11841;49.368;20.962;2024-03-23T08:53:05;42.88;;;18.73;;
23338;SDS011;11841;49.368;20.962;2024-03-23T08:55:53;36.70;;;18.95;;
23338;SDS011;11841;49.368;20.962;2024-03-23T08:58:38;35.63;;;17.05;;
23338;SDS011;11841;49.368;20.962;2024-03-23T09:01:23;41.15;;;19.27;;
23338;SDS011;11841;49.368;20.962;2024-03-23T09:04:07;28.00;;;17.10;;
23338;SDS011;11841;49.368;20.962;2024-03-23T09:06:52;31.83;;;17.00;;
23338;SDS011;11841;49.368;20.962;2024-03-23T09:09:40;29.67;;;16.77;;
23338;SDS011;11841;49.368;20.962;2024-03-23T09:12:24;31.33;;;17.30;;
23338;SDS011;11841;49.368;20.962;2024-03-23T09:15:09;35.65;;;17.45;;
23338;SDS011;11841;49.368;20.962;2024-03-23T09:17:53;27.38;;;17.23;;
23338;SDS011;11841;49.368;20.962;2024-03-23T09:20:38;33.83;;;16.48;;
23338;SDS011;11841;49.368;20.962;2024-03-23T09:23:22;35.03;;;16.75;;
23338;SDS011;11841;49.368;20.962;2024-03-23T09:26:07;29.10;;;16.02;;
23338;SDS011;11841;49.368;20.962;2024-03-23T09:28:51;31.33;;;15.70;;
23338;SDS011;11841;49.368;20.962;2024-03-23T09:31:36;31.30;;;17.75;;
23338;SDS011;11841;49.368;20.962;2024-03-23T09:34:22;36.53;;;18.15;;
23338;SDS011;11841;49.368;20.962;2024-03-23T09:37:06;30.30;;;16.73;;
23338;SDS011;11841;49.368;20.962;2024-03-23T09:39:50;28.98;;;16.85;;
23338;SDS011;11841;49.368;20.962;2024-03-23T09:42:35;32.83;;;18.27;;
23338;SDS011;11841;49.368;20.962;2024-03-23T09:45:21;32.97;;;17.48;;
23338;SDS011;11841;49.368;20.962;2024-03-23T09:48:10;33.03;;;17.65;;
23338;SDS011;11841;49.368;20.962;2024-03-23T09:50:54;35.20;;;18.95;;
23338;SDS011;11841;49.368;20.962;2024-03-23T09:53:39;33.35;;;15.52;;
23338;SDS011;11841;49.368;20.962;2024-03-23T09:56:23;34.83;;;18.48;;
23338;SDS011;11841;49.368;20.962;2024-03-23T09:59:08;29.52;;;16.98;;
23338;SDS011;11841;49.368;20.962;2024-03-23T10:01:53;42.38;;;20.80;;
23338;SDS011;11841;49.368;20.962;2024-03-23T10:04:38;43.40;;;22.35;;
23338;SDS011;11841;49.368;20.962;2024-03-23T10:07:25;37.13;;;20.90;;
23338;SDS011;11841;49.368;20.962;2024-03-23T10:10:13;46.08;;;27.25;;
23338;SDS011;11841;49.368;20.962;2024-03-23T10:12:59;41.58;;;20.63;;
23338;SDS011;11841;49.368;20.962;2024-03-23T10:15:44;37.03;;;19.42;;
23338;SDS011;11841;49.368;20.962;2024-03-23T10:18:28;42.28;;;19.90;;
23338;SDS011;11841;49.368;20.962;2024-03-23T10:21:14;41.10;;;23.55;;
23338;SDS011;11841;49.368;20.962;2024-03-23T10:24:00;39.65;;;20.65;;
23338;SDS011;11841;49.368;20.962;2024-03-23T10:27:01;39.30;;;20.90;;
23338;SDS011;11841;49.368;20.962;2024-03-23T10:29:45;38.00;;;20.63;;
23338;SDS011;11841;49.368;20.962;2024-03-23T10:32:30;41.53;;;19.42;;
23338;SDS011;11841;49.368;20.962;2024-03-23T10:35:16;45.95;;;22.83;;
23338;SDS011;11841;49.368;20.962;2024-03-23T10:38:07;32.10;;;17.92;;
23338;SDS011;11841;49.368;20.962;2024-03-23T10:40:52;36.25;;;16.88;;
23338;SDS011;11841;49.368;20.962;2024-03-23T10:43:38;36.78;;;19.27;;
23338;SDS011;11841;49.368;20.962;2024-03-23T10:46:23;37.75;;;19.90;;
23338;SDS011;11841;49.368;20.962;2024-03-23T10:49:08;33.90;;;18.40;;
23338;SDS011;11841;49.368;20.962;2024-03-23T10:51:52;32.13;;;18.95;;
23338;SDS011;11841;49.368;20.962;2024-03-23T10:54:37;40.60;;;20.08;;
23338;SDS011;11841;49.368;20.962;2024-03-23T10:57:26;42.78;;;23.27;;
23338;SDS011;11841;49.368;20.962;2024-03-23T11:00:18;36.72;;;17.45;;
23338;SDS011;11841;49.368;20.962;2024-03-23T11:06:36;29.27;;;16.95;;
23338;SDS011;11841;49.368;20.962;2024-03-23T11:09:42;44.47;;;20.05;;
23338;SDS011;11841;49.368;20.962;2024-03-23T11:12:29;43.17;;;23.40;;
23338;SDS011;11841;49.368;20.962;2024-03-23T11:15:16;39.47;;;21.50;;
23338;SDS011;11841;49.368;20.962;2024-03-23T11:18:05;49.83;;;26.48;;
23338;SDS011;11841;49.368;20.962;2024-03-23T11:20:53;36.92;;;19.27;;
23338;SDS011;11841;49.368;20.962;2024-03-23T11:23:37;29.65;;;16.77;;
23338;SDS011;11841;49.368;20.962;2024-03-23T11:26:22;36.70;;;19.05;;
23338;SDS011;11841;49.368;20.962;2024-03-23T11:29:10;36.17;;;19.02;;
23338;SDS011;11841;49.368;20.962;2024-03-23T11:31:58;37.40;;;20.83;;
23338;SDS011;11841;49.368;20.962;2024-03-23T11:34:42;38.17;;;19.05;;
23338;SDS011;11841;49.368;20.962;2024-03-23T11:37:27;37.67;;;18.63;;
23338;SDS011;11841;49.368;20.962;2024-03-23T11:40:18;45.63;;;19.80;;
23338;SDS011;11841;49.368;20.962;2024-03-23T11:43:04;29.23;;;17.90;;
23338;SDS011;11841;49.368;20.962;2024-03-23T11:45:49;37.17;;;17.38;;
23338;SDS011;11841;49.368;20.962;2024-03-23T11:48:39;35.10;;;18.58;;
23338;SDS011;11841;49.368;20.962;2024-03-23T11:51:23;36.22;;;20.77;;
23338;SDS011;11841;49.368;20.962;2024-03-23T11:54:08;30.63;;;17.38;;
23338;SDS011;11841;49.368;20.962;2024-03-23T11:56:56;33.40;;;17.73;;
23338;SDS011;11841;49.368;20.962;2024-03-23T11:59:41;39.70;;;16.27;;
23338;SDS011;11841;49.368;20.962;2024-03-23T12:02:26;58.42;;;32.85;;
23338;SDS011;11841;49.368;20.962;2024-03-23T12:05:14;34.38;;;19.42;;
23338;SDS011;11841;49.368;20.962;2024-03-23T12:11:22;43.70;;;23.73;;
23338;SDS011;11841;49.368;20.962;2024-03-23T12:14:08;49.10;;;24.73;;
23338;SDS011;11841;49.368;20.962;2024-03-23T12:16:52;36.72;;;20.13;;
23338;SDS011;11841;49.368;20.962;2024-03-23T12:19:37;28.10;;;16.15;;
23338;SDS011;11841;49.368;20.962;2024-03-23T12:22:21;40.60;;;21.55;;
23338;SDS011;11841;49.368;20.962;2024-03-23T12:25:06;32.65;;;17.48;;
23338;SDS011;11841;49.368;20.962;2024-03-23T12:27:50;35.15;;;19.50;;
23338;SDS011;11841;49.368;20.962;2024-03-23T12:30:35;28.65;;;17.45;;
23338;SDS011;11841;49.368;20.962;2024-03-23T12:33:23;30.65;;;16.98;;
23338;SDS011;11841;49.368;20.962;2024-03-23T12:36:07;29.20;;;17.98;;
23338;SDS011;11841;49.368;20.962;2024-03-23T12:38:52;27.02;;;15.48;;
23338;SDS011;11841;49.368;20.962;2024-03-23T12:41:36;27.42;;;16.58;;
23338;SDS011;11841;49.368;20.962;2024-03-23T12:44:21;30.55;;;17.77;;
23338;SDS011;11841;49.368;20.962;2024-03-23T12:47:05;34.33;;;16.52;;
23338;SDS011;11841;49.368;20.962;2024-03-23T12:49:50;29.90;;;15.50;;
23338;SDS011;11841;49.368;20.962;2024-03-23T12:52:36;29.90;;;15.82;;
23338;SDS011;11841;49.368;20.962;2024-03-23T12:55:21;21.77;;;13.07;;
23338;SDS011;11841;49.368;20.962;2024-03-23T12:58:05;27.75;;;14.48;;
23338;SDS011;11841;49.368;20.962;2024-03-23T13:00:51;26.17;;;12.70;;
23338;SDS011;11841;49.368;20.962;2024-03-23T13:03:35;24.88;;;13.82;;
23338;SDS011;11841;49.368;20.962;2024-03-23T13:06:20;33.22;;;19.52;;
23338;SDS011;11841;49.368;20.962;2024-03-23T13:09:04;30.90;;;18.33;;
23338;SDS011;11841;49.368;20.962;2024-03-23T13:11:49;24.65;;;14.02;;
23338;SDS011;11841;49.368;20.962;2024-03-23T13:14:33;25.02;;;13.60;;
23338;SDS011;11841;49.368;20.962;2024-03-23T13:17:18;32.53;;;16.85;;
23338;SDS011;11841;49.368;20.962;2024-03-23T13:20:03;27.50;;;16.33;;
23338;SDS011;11841;49.368;20.962;2024-03-23T13:22:48;23.73;;;13.43;;
23338;SDS011;11841;49.368;20.962;2024-03-23T13:25:32;22.75;;;14.15;;
23338;SDS011;11841;49.368;20.962;2024-03-23T13:28:17;33.42;;;16.10;;
23338;SDS011;11841;49.368;20.962;2024-03-23T13:31:02;30.52;;;15.82;;
23338;SDS011;11841;49.368;20.962;2024-03-23T13:33:48;29.52;;;17.38;;
23338;SDS011;11841;49.368;20.962;2024-03-23T13:36:32;24.33;;;15.73;;
23338;SDS011;11841;49.368;20.962;2024-03-23T13:39:17;22.10;;;12.90;;
23338;SDS011;11841;49.368;20.962;2024-03-23T13:42:01;33.97;;;16.75;;
23338;SDS011;11841;49.368;20.962;2024-03-23T13:44:47;32.60;;;17.88;;
23338;SDS011;11841;49.368;20.962;2024-03-23T13:47:32;35.10;;;19.45;;
23338;SDS011;11841;49.368;20.962;2024-03-23T13:50:17;24.58;;;13.45;;
23338;SDS011;11841;49.368;20.962;2024-03-23T13:53:01;25.27;;;13.40;;
23338;SDS011;11841;49.368;20.962;2024-03-23T13:55:49;36.35;;;19.27;;
23338;SDS011;11841;49.368;20.962;2024-03-23T13:58:33;19.52;;;10.43;;
23338;SDS011;11841;49.368;20.962;2024-03-23T14:01:18;16.80;;;8.43;;
23338;SDS011;11841;49.368;20.962;2024-03-23T14:04:02;17.25;;;9.38;;
23338;SDS011;11841;49.368;20.962;2024-03-23T14:06:47;16.50;;;8.77;;
23338;SDS011;11841;49.368;20.962;2024-03-23T14:09:31;13.35;;;7.63;;
23338;SDS011;11841;49.368;20.962;2024-03-23T14:12:17;13.32;;;7.00;;
23338;SDS011;11841;49.368;20.962;2024-03-23T14:15:01;29.67;;;20.85;;
23338;SDS011;11841;49.368;20.962;2024-03-23T14:17:49;19.95;;;12.30;;
23338;SDS011;11841;49.368;20.962;2024-03-23T14:20:34;20.77;;;11.93;;
23338;SDS011;11841;49.368;20.962;2024-03-23T14:23:18;17.60;;;7.20;;
23338;SDS011;11841;49.368;20.962;2024-03-23T14:26:03;12.45;;;5.95;;
23338;SDS011;11841;49.368;20.962;2024-03-23T14:28:47;11.93;;;6.43;;
23338;SDS011;11841;49.368;20.962;2024-03-23T14:31:33;9.02;;;6.32;;
23338;SDS011;11841;49.368;20.962;2024-03-23T14:34:17;8.88;;;6.15;;
23338;SDS011;11841;49.368;20.962;2024-03-23T14:37:02;15.90;;;6.07;;
23338;SDS011;11841;49.368;20.962;2024-03-23T14:39:47;15.65;;;7.78;;
23338;SDS011;11841;49.368;20.962;2024-03-23T14:42:31;40.97;;;22.42;;
23338;SDS011;11841;49.368;20.962;2024-03-23T14:45:16;19.90;;;9.30;;
23338;SDS011;11841;49.368;20.962;2024-03-23T14:48:00;14.32;;;6.82;;
23338;SDS011;11841;49.368;20.962;2024-03-23T14:50:46;8.85;;;5.72;;
23338;SDS011;11841;49.368;20.962;2024-03-23T14:53:33;16.50;;;8.90;;
23338;SDS011;11841;49.368;20.962;2024-03-23T14:56:19;16.00;;;7.93;;
23338;SDS011;11841;49.368;20.962;2024-03-23T14:59:03;11.18;;;6.93;;
23338;SDS011;11841;49.368;20.962;2024-03-23T15:01:48;9.63;;;6.72;;
23338;SDS011;11841;49.368;20.962;2024-03-23T15:04:32;14.00;;;6.20;;
23338;SDS011;11841;49.368;20.962;2024-03-23T15:07:17;10.18;;;5.50;;
23338;SDS011;11841;49.368;20.962;2024-03-23T15:10:01;16.95;;;9.68;;
23338;SDS011;11841;49.368;20.962;2024-03-23T15:12:45;21.52;;;11.77;;
23338;SDS011;11841;49.368;20.962;2024-03-23T15:15:30;9.45;;;6.78;;
23338;SDS011;11841;49.368;20.962;2024-03-23T15:18:15;14.55;;;9.52;;
23338;SDS011;11841;49.368;20.962;2024-03-23T15:21:01;19.50;;;8.73;;
23338;SDS011;11841;49.368;20.962;2024-03-23T15:23:47;8.88;;;6.18;;
23338;SDS011;11841;49.368;20.962;2024-03-23T15:26:31;11.32;;;7.15;;
23338;SDS011;11841;49.368;20.962;2024-03-23T15:29:16;10.45;;;6.50;;
23338;SDS011;11841;49.368;20.962;2024-03-23T15:32:01;10.38;;;7.22;;
23338;SDS011;11841;49.368;20.962;2024-03-23T15:34:45;13.32;;;8.27;;
23338;SDS011;11841;49.368;20.962;2024-03-23T15:37:31;10.13;;;6.65;;
23338;SDS011;11841;49.368;20.962;2024-03-23T15:40:15;12.38;;;7.13;;
23338;SDS011;11841;49.368;20.962;2024-03-23T15:43:00;9.38;;;7.38;;
23338;SDS011;11841;49.368;20.962;2024-03-23T15:45:44;11.85;;;6.82;;
23338;SDS011;11841;49.368;20.962;2024-03-23T15:48:29;10.57;;;6.95;;
23338;SDS011;11841;49.368;20.962;2024-03-23T15:51:14;24.70;;;8.90;;
23338;SDS011;11841;49.368;20.962;2024-03-23T15:53:59;8.48;;;6.45;;
23338;SDS011;11841;49.368;20.962;2024-03-23T15:56:43;10.70;;;6.72;;
23338;SDS011;11841;49.368;20.962;2024-03-23T15:59:28;9.27;;;6.35;;
23338;SDS011;11841;49.368;20.962;2024-03-23T16:02:13;9.70;;;6.70;;
23338;SDS011;11841;49.368;20.962;2024-03-23T16:04:57;12.18;;;6.63;;
23338;SDS011;11841;49.368;20.962;2024-03-23T16:07:42;12.80;;;5.90;;
23338;SDS011;11841;49.368;20.962;2024-03-23T16:10:27;9.27;;;6.35;;
23338;SDS011;11841;49.368;20.962;2024-03-23T16:13:11;20.33;;;7.18;;
23338;SDS011;11841;49.368;20.962;2024-03-23T16:15:56;12.48;;;7.55;;
23338;SDS011;11841;49.368;20.962;2024-03-23T16:18:41;15.60;;;6.40;;
23338;SDS011;11841;49.368;20.962;2024-03-23T16:21:27;11.55;;;6.40;;
23338;SDS011;11841;49.368;20.962;2024-03-23T16:24:12;8.50;;;5.38;;
23338;SDS011;11841;49.368;20.962;2024-03-23T16:26:56;11.70;;;6.90;;
23338;SDS011;11841;49.368;20.962;2024-03-23T16:29:41;13.10;;;7.32;;
23338;SDS011;11841;49.368;20.962;2024-03-23T16:32:25;9.13;;;6.10;;
23338;SDS011;11841;49.368;20.962;2024-03-23T16:35:15;15.32;;;8.48;;
23338;SDS011;11841;49.368;20.962;2024-03-23T16:38:00;24.67;;;14.30;;
23338;SDS011;11841;49.368;20.962;2024-03-23T16:40:52;29.73;;;16.05;;
23338;SDS011;11841;49.368;20.962;2024-03-23T16:43:37;14.75;;;8.75;;
23338;SDS011;11841;49.368;20.962;2024-03-23T16:46:23;14.52;;;7.43;;
23338;SDS011;11841;49.368;20.962;2024-03-23T16:49:07;10.45;;;6.72;;
23338;SDS011;11841;49.368;20.962;2024-03-23T16:51:52;10.75;;;7.55;;
23338;SDS011;11841;49.368;20.962;2024-03-23T16:54:36;16.75;;;12.07;;